Time;durP1;ratioP1;P1;durP2;ratioP2;P2;SDS_P1;SDS_P2;PMS_P1;PMS_P2;Temp;Humidity;BMP_temperature;BMP_pressure;BME280_temperature;BME280_humidity;BME280_pressure;Samples;Min_cycle;Max_cycle;Signal;HPM_P1;HPM_P2
2022/07/01 00:02:24;;;;;;;14.52;12.18;;;;;;;;;;5301956;28;20045;-72
2022/07/01 00:04:56;;;;;;;13.43;12.10;;;;;;;;;;5302760;28;20386;-72
2022/07/01 00:07:27;;;;;;;14.95;13.15;;;;;;;;;;5301410;28;20070;-71
2022/07/01 00:09:58;;;;;;;15.02;12.75;;;;;;;;;;5302562;28;20103;-72
2022/07/01 00:12:29;;;;;;;13.95;12.48;;;;;;;;;;5301011;28;20536;-71
2022/07/01 00:15:01;;;;;;;14.80;13.30;;;;;;;;;;5302568;28;20039;-72
2022/07/01 00:17:32;;;;;;;16.10;13.30;;;;;;;;;;5302481;28;20012;-72
2022/07/01 00:20:03;;;;;;;15.43;13.30;;;;;;;;;;5301343;28;20298;-72
2022/07/01 00:22:35;;;;;;;15.13;13.10;;;;;;;;;;5302302;28;20106;-72
2022/07/01 00:25:06;;;;;;;18.40;13.73;;;;;;;;;;5302145;28;20016;-71
2022/07/01 00:27:41;;;;;;;17.30;14.48;;;;;;;;;;5301364;28;20471;-71
2022/07/01 00:30:12;;;;;;;21.60;14.15;;;;;;;;;;5302242;28;20050;-72
2022/07/01 00:32:43;;;;;;;16.38;13.77;;;;;;;;;;5302188;28;20040;-72
2022/07/01 00:35:15;;;;;;;16.00;13.55;;;;;;;;;;5301271;28;20095;-73
2022/07/01 00:37:46;;;;;;;17.23;13.77;;;;;;;;;;5302059;28;20016;-72
2022/07/01 00:40:17;;;;;;;17.30;14.57;;;;;;;;;;5302200;28;20528;-72
2022/07/01 00:42:48;;;;;;;19.45;13.90;;;;;;;;;;5301369;28;20023;-71
2022/07/01 00:45:19;;;;;;;14.30;12.80;;;;;;;;;;5301759;28;20345;-71
2022/07/01 00:47:50;;;;;;;16.50;13.82;;;;;;;;;;5301786;28;20285;-71
2022/07/01 00:50:23;;;;;;;15.18;12.63;;;;;;;;;;5301693;28;20338;-71
2022/07/01 00:52:54;;;;;;;19.00;14.45;;;;;;;;;;5302384;28;20410;-72
2022/07/01 00:55:25;;;;;;;16.73;13.18;;;;;;;;;;5300839;28;20012;-71
2022/07/01 00:57:56;;;;;;;19.97;13.63;;;;;;;;;;5302127;28;20142;-71
2022/07/01 01:00:27;;;;;;;16.77;13.93;;;;;;;;;;5301853;28;20740;-71
2022/07/01 01:02:59;;;;;;;17.58;13.50;;;;;;;;;;5302025;28;20012;-72
2022/07/01 01:05:30;;;;;;;16.40;12.90;;;;;;;;;;5305906;28;20012;-72
2022/07/01 01:08:01;;;;;;;19.00;13.95;;;;;;;;;;5305754;28;20096;-73
2022/07/01 01:10:32;;;;;;;19.50;14.82;;;;;;;;;;5304853;28;20345;-73
2022/07/01 01:13:04;;;;;;;19.23;15.02;;;;;;;;;;5305767;28;20028;-72
2022/07/01 01:15:37;;;;;;;19.42;14.00;;;;;;;;;;5305889;28;20020;-72
2022/07/01 01:18:08;;;;;;;22.63;15.80;;;;;;;;;;5304649;28;20035;-72
2022/07/01 01:20:39;;;;;;;18.58;14.23;;;;;;;;;;5305465;28;20043;-72
2022/07/01 01:23:10;;;;;;;20.57;15.83;;;;;;;;;;5304477;28;20040;-72
2022/07/01 01:25:41;;;;;;;21.25;15.35;;;;;;;;;;5305508;28;20768;-72
2022/07/01 01:28:13;;;;;;;18.55;14.32;;;;;;;;;;5305510;28;20027;-72
2022/07/01 01:30:44;;;;;;;18.15;15.30;;;;;;;;;;5304566;28;20254;-71
2022/07/01 01:33:15;;;;;;;20.73;16.65;;;;;;;;;;5305187;28;20104;-72
2022/07/01 01:35:46;;;;;;;21.17;16.63;;;;;;;;;;5305035;28;20107;-72
2022/07/01 01:38:17;;;;;;;21.53;16.40;;;;;;;;;;5304608;28;20266;-72
2022/07/01 01:40:49;;;;;;;21.67;16.03;;;;;;;;;;5305296;28;20349;-72
2022/07/01 01:43:20;;;;;;;20.52;16.23;;;;;;;;;;5304841;28;20609;-72
2022/07/01 01:45:52;;;;;;;20.67;15.13;;;;;;;;;;5304464;28;20111;-72
2022/07/01 01:48:23;;;;;;;24.37;16.37;;;;;;;;;;5304977;28;20328;-72
2022/07/01 01:50:54;;;;;;;25.20;17.02;;;;;;;;;;5304299;28;20302;-72
2022/07/01 01:53:25;;;;;;;23.90;16.58;;;;;;;;;;5304414;28;20457;-73
2022/07/01 01:55:57;;;;;;;26.20;17.30;;;;;;;;;;5305097;28;20112;-72
2022/07/01 01:58:28;;;;;;;25.35;17.10;;;;;;;;;;5303613;28;20027;-72
2022/07/01 02:00:59;;;;;;;24.10;16.20;;;;;;;;;;5304945;28;20024;-74
2022/07/01 02:03:30;;;;;;;24.42;17.45;;;;;;;;;;5304780;28;20258;-73
2022/07/01 02:06:02;;;;;;;30.17;18.05;;;;;;;;;;5303986;28;20375;-73
2022/07/01 02:08:33;;;;;;;24.48;16.98;;;;;;;;;;5304579;28;20023;-73
2022/07/01 02:11:05;;;;;;;23.08;16.73;;;;;;;;;;5304313;28;20511;-73
2022/07/01 02:13:37;;;;;;;25.35;16.10;;;;;;;;;;5303867;28;20020;-72
2022/07/01 02:16:08;;;;;;;22.30;16.58;;;;;;;;;;5303290;28;20051;-72
2022/07/01 02:18:39;;;;;;;23.85;16.98;;;;;;;;;;5304283;28;20503;-71
2022/07/01 02:21:11;;;;;;;23.50;17.25;;;;;;;;;;5303897;28;20103;-72
2022/07/01 02:23:42;;;;;;;19.85;17.60;;;;;;;;;;5304361;28;20066;-72
2022/07/01 02:26:13;;;;;;;26.30;17.10;;;;;;;;;;5303609;28;20273;-72
2022/07/01 02:28:44;;;;;;;26.13;18.10;;;;;;;;;;5304327;28;20266;-71
2022/07/01 02:31:15;;;;;;;21.43;17.17;;;;;;;;;;5304120;28;20028;-71
2022/07/01 02:33:47;;;;;;;29.67;17.55;;;;;;;;;;5303216;28;20306;-71
2022/07/01 02:36:18;;;;;;;27.63;17.10;;;;;;;;;;5303980;28;20976;-72
2022/07/01 02:38:49;;;;;;;25.00;17.27;;;;;;;;;;5304161;28;20035;-71
2022/07/01 02:41:20;;;;;;;26.70;16.40;;;;;;;;;;5302978;28;20486;-71
2022/07/01 02:43:51;;;;;;;30.47;17.70;;;;;;;;;;5304170;28;20019;-72
2022/07/01 02:46:23;;;;;;;28.13;19.08;;;;;;;;;;5303451;28;20273;-72
2022/07/01 02:48:54;;;;;;;22.42;16.95;;;;;;;;;;5303484;28;20254;-72
2022/07/01 02:51:25;;;;;;;23.70;16.70;;;;;;;;;;5303368;28;20032;-72
2022/07/01 02:53:56;;;;;;;23.55;16.83;;;;;;;;;;5304012;28;20016;-71
2022/07/01 02:56:27;;;;;;;25.17;16.75;;;;;;;;;;5302612;28;20288;-72
2022/07/01 02:58:58;;;;;;;22.30;16.70;;;;;;;;;;5303841;28;20262;-72
2022/07/01 03:01:29;;;;;;;26.55;18.48;;;;;;;;;;5302778;28;20263;-71
2022/07/01 03:04:01;;;;;;;28.23;18.65;;;;;;;;;;5303587;28;20254;-72
2022/07/01 03:06:32;;;;;;;25.73;18.67;;;;;;;;;;5303552;28;20382;-72
2022/07/01 03:09:03;;;;;;;26.67;18.55;;;;;;;;;;5302597;28;20262;-73
2022/07/01 03:11:34;;;;;;;34.23;21.23;;;;;;;;;;5303308;28;20115;-72
2022/07/01 03:14:05;;;;;;;30.77;20.55;;;;;;;;;;5303513;28;20269;-72
2022/07/01 03:16:36;;;;;;;27.52;20.33;;;;;;;;;;5302623;28;20052;-72
2022/07/01 03:19:09;;;;;;;30.08;21.33;;;;;;;;;;5303156;28;20386;-72
2022/07/01 03:21:40;;;;;;;28.08;21.55;;;;;;;;;;5303213;28;20023;-72
2022/07/01 03:24:12;;;;;;;26.83;20.45;;;;;;;;;;5302719;28;20012;-72
2022/07/01 03:26:43;;;;;;;30.27;22.77;;;;;;;;;;5303051;28;20114;-72
2022/07/01 03:29:14;;;;;;;29.40;21.95;;;;;;;;;;5303189;28;20266;-72
2022/07/01 03:31:45;;;;;;;29.25;21.65;;;;;;;;;;5302123;28;20032;-72
2022/07/01 03:34:17;;;;;;;35.10;22.77;;;;;;;;;;5302891;28;20277;-72
2022/07/01 03:36:48;;;;;;;34.47;23.38;;;;;;;;;;5302310;28;20292;-72
2022/07/01 03:39:19;;;;;;;32.20;21.57;;;;;;;;;;5302786;28;20032;-73
2022/07/01 03:41:50;;;;;;;29.30;22.70;;;;;;;;;;5303257;28;20270;-72
2022/07/01 03:44:22;;;;;;;28.67;22.17;;;;;;;;;;5301495;28;20020;-73
2022/07/01 03:46:53;;;;;;;30.83;22.92;;;;;;;;;;5302925;28;20761;-73
2022/07/01 03:49:24;;;;;;;30.88;23.05;;;;;;;;;;5302319;28;20024;-73
2022/07/01 03:51:55;;;;;;;29.50;23.13;;;;;;;;;;5302536;28;20020;-72
2022/07/01 03:54:30;;;;;;;31.08;23.10;;;;;;;;;;5302265;28;20047;-72
2022/07/01 03:57:08;;;;;;;27.30;22.33;;;;;;;;;;5302535;28;20266;-73
2022/07/01 03:59:39;;;;;;;34.15;24.38;;;;;;;;;;5302006;28;20099;-72
2022/07/01 04:02:11;;;;;;;33.53;25.45;;;;;;;;;;5302591;28;20103;-72
2022/07/01 04:04:42;;;;;;;34.75;25.75;;;;;;;;;;5301844;28;20020;-72
2022/07/01 04:07:13;;;;;;;37.57;26.30;;;;;;;;;;5302563;28;20266;-71
2022/07/01 04:09:44;;;;;;;34.83;26.50;;;;;;;;;;5302337;28;20273;-72
2022/07/01 04:12:15;;;;;;;36.45;28.17;;;;;;;;;;5301634;28;20356;-72
2022/07/01 04:14:46;;;;;;;41.22;30.25;;;;;;;;;;5302317;28;20020;-72
2022/07/01 04:17:18;;;;;;;39.22;27.48;;;;;;;;;;5302456;28;20387;-72
2022/07/01 04:19:49;;;;;;;33.35;27.17;;;;;;;;;;5301566;28;20044;-73
2022/07/01 04:22:32;;;;;;;40.15;29.10;;;;;;;;;;5301964;28;20112;-72
2022/07/01 04:25:04;;;;;;;37.63;28.42;;;;;;;;;;5302357;28;20016;-73
2022/07/01 04:27:35;;;;;;;33.25;24.45;;;;;;;;;;5301593;28;20031;-72
2022/07/01 04:30:06;;;;;;;33.55;23.75;;;;;;;;;;5302224;28;20020;-72
2022/07/01 04:32:38;;;;;;;29.55;21.98;;;;;;;;;;5301906;28;20028;-72
2022/07/01 04:35:11;;;;;;;31.60;22.50;;;;;;;;;;5301888;28;20108;-72
2022/07/01 04:37:43;;;;;;;31.77;20.35;;;;;;;;;;5302308;28;20031;-72
2022/07/01 04:40:14;;;;;;;25.75;18.85;;;;;;;;;;5305625;28;20558;-72
2022/07/01 04:42:45;;;;;;;23.67;17.90;;;;;;;;;;5306397;28;20065;-71
2022/07/01 04:45:16;;;;;;;22.27;17.10;;;;;;;;;;5306223;28;20296;-72
2022/07/01 04:47:47;;;;;;;21.58;15.35;;;;;;;;;;5305571;28;20262;-73
2022/07/01 04:50:19;;;;;;;19.40;15.00;;;;;;;;;;5305838;28;20031;-71
2022/07/01 04:52:50;;;;;;;22.50;14.93;;;;;;;;;;5306310;28;20509;-72
2022/07/01 04:55:21;;;;;;;19.83;15.82;;;;;;;;;;5304883;28;20016;-73
2022/07/01 04:57:52;;;;;;;22.77;14.27;;;;;;;;;;5306278;28;20303;-72
2022/07/01 05:00:23;;;;;;;17.90;14.02;;;;;;;;;;5305835;28;20258;-73
2022/07/01 05:02:55;;;;;;;15.43;12.88;;;;;;;;;;5305553;28;20258;-73
2022/07/01 05:05:26;;;;;;;17.60;13.30;;;;;;;;;;5305564;28;20057;-73
2022/07/01 05:07:57;;;;;;;16.77;13.67;;;;;;;;;;5305182;28;20269;-73
2022/07/01 05:10:28;;;;;;;20.97;14.10;;;;;;;;;;5305466;28;20266;-73
2022/07/01 05:12:59;;;;;;;29.27;14.40;;;;;;;;;;5305755;28;20286;-73
2022/07/01 05:15:31;;;;;;;13.85;11.70;;;;;;;;;;5304916;28;20057;-73
2022/07/01 05:23:41;;;;;;;19.92;11.15;;;;;;;;;;5304714;28;20107;-72
2022/07/01 05:26:16;;;;;;;16.15;11.10;;;;;;;;;;5305451;28;20087;-73
2022/07/01 05:28:47;;;;;;;15.60;10.65;;;;;;;;;;5305446;28;20633;-72
2022/07/01 05:31:18;;;;;;;12.23;10.45;;;;;;;;;;5304351;28;20020;-74
2022/07/01 05:33:49;;;;;;;12.82;9.85;;;;;;;;;;5305730;28;20111;-73
2022/07/01 05:36:21;;;;;;;14.15;10.07;;;;;;;;;;5304174;28;20017;-73
2022/07/01 05:38:52;;;;;;;14.65;9.77;;;;;;;;;;5305508;28;20258;-73
2022/07/01 05:41:23;;;;;;;14.65;10.45;;;;;;;;;;5304716;28;20039;-73
2022/07/01 05:43:54;;;;;;;15.50;11.32;;;;;;;;;;5304627;28;20024;-73
2022/07/01 05:46:25;;;;;;;13.02;10.25;;;;;;;;;;5304801;28;20467;-73
2022/07/01 05:48:56;;;;;;;10.93;9.80;;;;;;;;;;5305312;28;20027;-72
2022/07/01 05:51:28;;;;;;;14.38;10.68;;;;;;;;;;5303831;28;20030;-73
2022/07/01 05:53:59;;;;;;;13.85;10.63;;;;;;;;;;5304851;28;20323;-73
2022/07/01 05:56:31;;;;;;;12.13;10.27;;;;;;;;;;5304748;28;20020;-73
2022/07/01 05:59:02;;;;;;;16.20;11.00;;;;;;;;;;5304025;28;20020;-72
2022/07/01 06:01:33;;;;;;;17.95;11.00;;;;;;;;;;5304862;28;20097;-73
2022/07/01 06:04:05;;;;;;;13.18;10.93;;;;;;;;;;5304053;28;20266;-72
2022/07/01 06:06:36;;;;;;;15.40;10.98;;;;;;;;;;5304711;28;20293;-72
2022/07/01 06:09:07;;;;;;;26.07;11.73;;;;;;;;;;5304601;28;20095;-72
2022/07/01 06:11:38;;;;;;;15.38;10.55;;;;;;;;;;5303576;28;20277;-73
2022/07/01 06:14:09;;;;;;;12.23;10.57;;;;;;;;;;5304450;28;20020;-74
2022/07/01 06:16:40;;;;;;;13.90;10.60;;;;;;;;;;5304382;28;20399;-74
2022/07/01 06:19:12;;;;;;;13.95;9.65;;;;;;;;;;5303531;28;20290;-73
2022/07/01 06:21:43;;;;;;;14.07;10.10;;;;;;;;;;5304446;28;20250;-73
2022/07/01 06:24:14;;;;;;;10.05;9.05;;;;;;;;;;5304089;28;20183;-73
2022/07/01 06:26:46;;;;;;;13.65;8.73;;;;;;;;;;5303946;28;20258;-73
2022/07/01 06:29:18;;;;;;;13.13;9.35;;;;;;;;;;5304204;28;20304;-73
2022/07/01 06:31:49;;;;;;;12.10;8.75;;;;;;;;;;5304526;28;20056;-72
2022/07/01 06:34:20;;;;;;;11.43;8.33;;;;;;;;;;5302853;28;20027;-72
2022/07/01 06:36:51;;;;;;;15.27;8.47;;;;;;;;;;5304261;28;20301;-73
2022/07/01 06:39:23;;;;;;;17.67;9.23;;;;;;;;;;5303277;28;20613;-73
2022/07/01 06:41:55;;;;;;;9.30;8.27;;;;;;;;;;5304247;28;20020;-73
2022/07/01 06:44:26;;;;;;;10.68;7.15;;;;;;;;;;5303811;28;20056;-73
2022/07/01 06:46:57;;;;;;;11.45;7.57;;;;;;;;;;5303254;28;20100;-73
2022/07/01 06:49:28;;;;;;;16.13;6.93;;;;;;;;;;5303509;28;20378;-73
2022/07/01 06:51:59;;;;;;;10.90;6.82;;;;;;;;;;5303647;28;20688;-73
2022/07/01 06:54:31;;;;;;;7.85;6.82;;;;;;;;;;5302866;28;20101;-74
2022/07/01 06:57:02;;;;;;;8.43;6.22;;;;;;;;;;5303848;28;20258;-73
2022/07/01 06:59:33;;;;;;;6.88;5.00;;;;;;;;;;5303778;28;20349;-73
2022/07/01 07:02:07;;;;;;;12.27;5.88;;;;;;;;;;5302355;28;20024;-74
2022/07/01 07:04:38;;;;;;;9.13;4.95;;;;;;;;;;5303603;28;20027;-74
2022/07/01 07:07:09;;;;;;;6.00;4.60;;;;;;;;;;5303701;28;20099;-73
2022/07/01 07:09:40;;;;;;;5.35;3.78;;;;;;;;;;5302740;28;20262;-74
2022/07/01 07:12:11;;;;;;;8.60;3.35;;;;;;;;;;5307616;28;20031;-73
2022/07/01 07:14:43;;;;;;;8.30;3.67;;;;;;;;;;5322851;28;20031;-73
2022/07/01 07:17:14;;;;;;;8.05;2.90;;;;;;;;;;5323724;28;20853;-73
2022/07/01 07:19:45;;;;;;;7.07;2.30;;;;;;;;;;5324127;28;20105;-73
2022/07/01 07:22:16;;;;;;;4.95;1.65;;;;;;;;;;5323166;28;20261;-73
2022/07/01 07:24:47;;;;;;;5.60;1.40;;;;;;;;;;5323938;28;20451;-73
2022/07/01 07:27:19;;;;;;;4.85;0.90;;;;;;;;;;5323555;28;20732;-72
2022/07/01 07:29:50;;;;;;;5.10;0.90;;;;;;;;;;5323271;28;20022;-73
2022/07/01 07:32:21;;;;;;;7.07;1.23;;;;;;;;;;5323478;28;20338;-73
2022/07/01 07:34:52;;;;;;;5.28;0.90;;;;;;;;;;5324179;28;20265;-74
2022/07/01 07:37:23;;;;;;;4.18;1.38;;;;;;;;;;5322833;28;20258;-73
2022/07/01 07:39:55;;;;;;;3.47;0.70;;;;;;;;;;5323947;28;20020;-73
2022/07/01 07:42:26;;;;;;;2.85;0.90;;;;;;;;;;5323609;28;20293;-73
2022/07/01 07:44:58;;;;;;;5.72;1.05;;;;;;;;;;5323376;28;20306;-73
2022/07/01 07:47:29;;;;;;;3.83;0.70;;;;;;;;;;5323751;28;20016;-72
2022/07/01 07:50:00;;;;;;;2.97;0.60;;;;;;;;;;5323113;28;20026;-73
2022/07/01 07:52:31;;;;;;;6.07;0.70;;;;;;;;;;5323553;28;20281;-73
2022/07/01 07:55:03;;;;;;;4.30;0.50;;;;;;;;;;5323997;28;20459;-73
2022/07/01 07:57:38;;;;;;;4.32;0.40;;;;;;;;;;5323308;28;20020;-73
2022/07/01 08:00:11;;;;;;;3.55;0.32;;;;;;;;;;5323627;28;20479;-72
2022/07/01 08:02:43;;;;;;;1.30;0.30;;;;;;;;;;5323728;28;20023;-73
2022/07/01 08:05:14;;;;;;;3.70;0.30;;;;;;;;;;5318317;28;20011;-73
2022/07/01 08:07:45;;;;;;;2.70;0.47;;;;;;;;;;5323702;28;20076;-72
2022/07/01 08:10:16;;;;;;;4.80;0.30;;;;;;;;;;5323139;28;20371;-72
2022/07/01 08:12:48;;;;;;;1.23;0.30;;;;;;;;;;5322683;28;20032;-72
2022/07/01 08:15:19;;;;;;;3.50;0.25;;;;;;;;;;5327108;28;20261;-72
2022/07/01 08:17:50;;;;;;;2.55;0.32;;;;;;;;;;5327218;28;20470;-73
2022/07/01 08:20:22;;;;;;;1.58;0.30;;;;;;;;;;5326735;28;20095;-73
2022/07/01 08:22:53;;;;;;;3.00;0.17;;;;;;;;;;5327528;28;20280;-73
2022/07/01 08:25:24;;;;;;;1.97;0.40;;;;;;;;;;5326393;28;20469;-73
2022/07/01 08:27:55;;;;;;;2.50;0.30;;;;;;;;;;5327707;28;20743;-73
2022/07/01 08:30:26;;;;;;;3.47;0.40;;;;;;;;;;5327259;28;20100;-73
2022/07/01 08:32:58;;;;;;;2.85;0.30;;;;;;;;;;5326951;28;20296;-73
2022/07/01 08:35:29;;;;;;;2.95;0.30;;;;;;;;;;5327049;28;20459;-74
2022/07/01 08:38:00;;;;;;;2.83;0.20;;;;;;;;;;5327304;28;20023;-74
2022/07/01 08:40:31;;;;;;;3.92;0.43;;;;;;;;;;5326357;28;20257;-72
2022/07/01 08:43:04;;;;;;;2.83;0.40;;;;;;;;;;5327431;28;20047;-73
2022/07/01 08:45:35;;;;;;;2.85;0.20;;;;;;;;;;5326750;28;20095;-73
2022/07/01 08:48:07;;;;;;;1.13;0.20;;;;;;;;;;5326636;28;20550;-72
2022/07/01 08:50:39;;;;;;;2.40;0.20;;;;;;;;;;5327245;28;20080;-71
2022/07/01 08:53:11;;;;;;;2.15;0.28;;;;;;;;;;5325895;28;20036;-73
2022/07/01 08:58:33;;;;;;;4.07;0.25;;;;;;;;;;5327495;28;20114;-72
2022/07/01 09:01:14;;;;;;;1.80;0.30;;;;;;;;;;5325713;28;20427;-73
2022/07/01 09:03:46;;;;;;;3.75;0.30;;;;;;;;;;5326862;28;20020;-73
2022/07/01 09:06:19;;;;;;;3.40;0.30;;;;;;;;;;5327247;27;20064;-73
2022/07/01 09:08:50;;;;;;;1.92;0.30;;;;;;;;;;5326570;28;20028;-73
2022/07/01 09:11:25;;;;;;;2.93;0.50;;;;;;;;;;5326468;28;20008;-75
2022/07/01 09:14:07;;;;;;;1.42;0.20;;;;;;;;;;5326793;28;20748;-73
2022/07/01 09:16:44;;;;;;;2.88;0.20;;;;;;;;;;5326671;28;20012;-72
2022/07/01 09:19:16;;;;;;;1.23;0.20;;;;;;;;;;5326387;28;20088;-73
2022/07/01 09:21:49;;;;;;;2.88;0.35;;;;;;;;;;5325978;28;20020;-74
2022/07/01 09:24:23;;;;;;;2.30;0.40;;;;;;;;;;5325855;28;20024;-73
2022/07/01 09:26:56;;;;;;;2.13;0.30;;;;;;;;;;5327182;28;20030;-72
2022/07/01 09:29:28;;;;;;;1.92;0.30;;;;;;;;;;5325515;28;20012;-74
2022/07/01 09:32:01;;;;;;;0.98;0.20;;;;;;;;;;5326525;28;20023;-76
2022/07/01 09:34:53;;;;;;;1.83;0.35;;;;;;;;;;5326533;27;20382;-74
2022/07/01 09:37:24;;;;;;;2.50;0.20;;;;;;;;;;5324670;28;20028;-74
2022/07/01 09:39:57;;;;;;;1.48;0.22;;;;;;;;;;5326944;28;20462;-74
2022/07/01 09:42:28;;;;;;;3.15;0.40;;;;;;;;;;5325366;28;20459;-72
2022/07/01 09:45:02;;;;;;;2.33;0.47;;;;;;;;;;5326245;28;20011;-76
2022/07/01 09:47:34;;;;;;;4.32;0.63;;;;;;;;;;5322582;28;20012;-74
2022/07/01 09:50:06;;;;;;;2.28;0.47;;;;;;;;;;5325011;27;20020;-74
2022/07/01 09:52:38;;;;;;;3.25;0.30;;;;;;;;;;5326131;28;20392;-74
2022/07/01 09:55:12;;;;;;;1.95;0.30;;;;;;;;;;5326332;28;20394;-74
2022/07/01 09:57:43;;;;;;;2.17;0.30;;;;;;;;;;5324636;28;20478;-74
2022/07/01 10:00:14;;;;;;;2.53;0.20;;;;;;;;;;5325701;28;20037;-75
2022/07/01 10:02:46;;;;;;;2.20;0.40;;;;;;;;;;5325736;28;20020;-75
2022/07/01 10:05:20;;;;;;;1.80;0.20;;;;;;;;;;5325424;28;20014;-75
2022/07/01 10:07:58;;;;;;;1.92;0.10;;;;;;;;;;5326017;28;20509;-75
2022/07/01 10:10:38;;;;;;;1.47;0.20;;;;;;;;;;5324818;28;20023;-75
2022/07/01 10:13:11;;;;;;;4.10;0.20;;;;;;;;;;5325754;28;20490;-75
2022/07/01 10:15:43;;;;;;;2.13;0.20;;;;;;;;;;5320915;28;20012;-74
2022/07/01 10:18:21;;;;;;;1.58;0.30;;;;;;;;;;5324703;28;20480;-75
2022/07/01 10:20:54;;;;;;;2.65;0.20;;;;;;;;;;5326042;28;20526;-75
2022/07/01 10:23:28;;;;;;;3.13;0.30;;;;;;;;;;5325326;28;20099;-75
2022/07/01 10:26:04;;;;;;;2.35;0.40;;;;;;;;;;5324807;28;20090;-75
2022/07/01 10:28:41;;;;;;;1.65;0.30;;;;;;;;;;5325421;28;20032;-75
2022/07/01 10:31:16;;;;;;;2.72;0.20;;;;;;;;;;5325295;28;20377;-77
2022/07/01 10:33:53;;;;;;;2.20;0.30;;;;;;;;;;5324446;28;20035;-80
2022/07/01 10:36:26;;;;;;;2.00;0.30;;;;;;;;;;5324040;28;20019;-76
2022/07/01 10:39:00;;;;;;;2.53;0.40;;;;;;;;;;5324670;28;20019;-78
2022/07/01 10:41:40;;;;;;;2.08;0.25;;;;;;;;;;5324929;28;20121;-77
2022/07/01 10:44:12;;;;;;;2.10;0.20;;;;;;;;;;5325191;28;20024;-78
2022/07/01 10:46:47;;;;;;;4.45;0.30;;;;;;;;;;5324286;28;20097;-76
2022/07/01 10:49:19;;;;;;;2.22;0.20;;;;;;;;;;5324754;28;20060;-72
2022/07/01 10:51:54;;;;;;;3.63;0.30;;;;;;;;;;5324323;28;20031;-72
2022/07/01 10:54:43;;;;;;;1.83;0.20;;;;;;;;;;5323243;28;20026;-73
2022/07/01 10:57:17;;;;;;;1.77;0.30;;;;;;;;;;5324749;28;20026;-72
2022/07/01 10:59:54;;;;;;;1.58;0.20;;;;;;;;;;5323914;28;20023;-72
2022/07/01 11:02:26;;;;;;;2.65;0.20;;;;;;;;;;5324205;28;20523;-71
2022/07/01 11:05:02;;;;;;;1.83;0.30;;;;;;;;;;5324762;28;20027;-72
2022/07/01 11:07:34;;;;;;;2.80;0.30;;;;;;;;;;5323924;28;20023;-71
2022/07/01 11:10:06;;;;;;;1.65;0.20;;;;;;;;;;5324161;28;20012;-71
2022/07/01 11:12:37;;;;;;;2.60;0.40;;;;;;;;;;5324375;28;20042;-71
2022/07/01 11:15:10;;;;;;;2.35;0.20;;;;;;;;;;5323887;28;20008;-71
2022/07/01 11:17:43;;;;;;;1.90;0.17;;;;;;;;;;5324719;28;20110;-72
2022/07/01 11:20:15;;;;;;;2.13;0.20;;;;;;;;;;5324186;28;20374;-72
2022/07/01 11:22:46;;;;;;;5.45;0.30;;;;;;;;;;5323475;28;20024;-72
2022/07/01 11:25:19;;;;;;;1.92;0.20;;;;;;;;;;5323976;28;20427;-72
2022/07/01 11:27:51;;;;;;;2.88;0.20;;;;;;;;;;5323934;28;20490;-72
2022/07/01 11:30:23;;;;;;;4.25;0.20;;;;;;;;;;5323883;28;20024;-72
2022/07/01 11:32:55;;;;;;;1.50;0.20;;;;;;;;;;5324501;28;20042;-72
2022/07/01 11:41:08;;;;;;;2.40;0.10;;;;;;;;;;5323972;28;20102;-71
2022/07/01 11:43:39;;;;;;;1.73;0.20;;;;;;;;;;5323076;28;20015;-72
2022/07/01 11:46:11;;;;;;;4.38;0.30;;;;;;;;;;5324130;28;20465;-72
2022/07/01 11:48:43;;;;;;;3.25;0.30;;;;;;;;;;5323112;28;20020;-72
2022/07/01 11:51:16;;;;;;;3.03;0.20;;;;;;;;;;5323358;28;20069;-72
2022/07/01 11:53:51;;;;;;;1.60;0.20;;;;;;;;;;5323636;28;20081;-72
2022/07/01 11:56:32;;;;;;;0.70;0.10;;;;;;;;;;5322939;28;20513;-72
2022/07/01 11:59:03;;;;;;;1.52;0.20;;;;;;;;;;5323943;28;20421;-72
2022/07/01 12:01:36;;;;;;;2.40;0.20;;;;;;;;;;5323956;28;20020;-72
2022/07/01 12:04:08;;;;;;;2.13;0.20;;;;;;;;;;5323036;28;20272;-72
2022/07/01 12:06:41;;;;;;;1.27;0.20;;;;;;;;;;5323845;28;20532;-72
2022/07/01 12:09:13;;;;;;;1.75;0.30;;;;;;;;;;5323708;28;20023;-72
2022/07/01 12:11:45;;;;;;;1.48;0.20;;;;;;;;;;5323102;28;20020;-71
2022/07/01 12:14:23;;;;;;;6.15;0.30;;;;;;;;;;5323712;28;20023;-72
2022/07/01 12:16:59;;;;;;;2.47;0.35;;;;;;;;;;5323130;28;20016;-72
2022/07/01 12:19:40;;;;;;;3.25;0.45;;;;;;;;;;5323391;28;20052;-73
2022/07/01 12:22:12;;;;;;;2.92;0.50;;;;;;;;;;5323369;28;20027;-73
2022/07/01 12:24:43;;;;;;;2.00;0.30;;;;;;;;;;5322754;28;20539;-72
2022/07/01 12:27:14;;;;;;;1.77;0.20;;;;;;;;;;5323653;28;20024;-72
2022/07/01 12:29:45;;;;;;;2.53;0.45;;;;;;;;;;5323385;28;20030;-72
2022/07/01 12:32:19;;;;;;;1.98;0.10;;;;;;;;;;5322807;28;20035;-72
2022/07/01 12:34:52;;;;;;;2.30;0.20;;;;;;;;;;5323781;28;20019;-72
2022/07/01 12:37:27;;;;;;;6.15;0.20;;;;;;;;;;5323187;28;20019;-72
2022/07/01 12:39:58;;;;;;;1.77;0.20;;;;;;;;;;5322883;28;20011;-71
2022/07/01 12:42:33;;;;;;;2.97;0.38;;;;;;;;;;5322863;28;20030;-71
2022/07/01 12:45:06;;;;;;;3.33;0.30;;;;;;;;;;5322796;28;20039;-71
2022/07/01 12:47:37;;;;;;;4.22;0.30;;;;;;;;;;5323260;28;20019;-72
2022/07/01 12:50:11;;;;;;;1.88;0.30;;;;;;;;;;5323329;28;20031;-72
2022/07/01 12:52:46;;;;;;;3.75;0.30;;;;;;;;;;5322320;28;20088;-71
2022/07/01 12:55:18;;;;;;;2.70;0.25;;;;;;;;;;5323481;28;20024;-72
2022/07/01 12:57:51;;;;;;;1.83;0.20;;;;;;;;;;5323756;28;20372;-72
2022/07/01 13:00:23;;;;;;;3.17;0.50;;;;;;;;;;5324916;28;20024;-72
2022/07/01 13:02:55;;;;;;;2.10;0.20;;;;;;;;;;5327357;28;20023;-72
2022/07/01 13:05:27;;;;;;;3.20;0.20;;;;;;;;;;5326694;28;20089;-73
2022/07/01 13:07:58;;;;;;;1.25;0.20;;;;;;;;;;5326947;28;20069;-73
2022/07/01 13:10:29;;;;;;;1.93;0.20;;;;;;;;;;5326845;28;20050;-73
2022/07/01 13:13:01;;;;;;;1.57;0.20;;;;;;;;;;5327212;28;20781;-73
2022/07/01 13:15:32;;;;;;;3.70;0.20;;;;;;;;;;5326031;28;20257;-72
2022/07/01 13:18:04;;;;;;;2.08;0.45;;;;;;;;;;5326975;28;20028;-72
2022/07/01 13:20:35;;;;;;;3.60;0.40;;;;;;;;;;5326274;28;20043;-73
2022/07/01 13:23:06;;;;;;;1.77;0.30;;;;;;;;;;5326820;28;20178;-72
2022/07/01 13:25:38;;;;;;;5.67;0.77;;;;;;;;;;5326588;28;20022;-72
2022/07/01 13:28:09;;;;;;;3.33;0.30;;;;;;;;;;5325867;28;20670;-72
2022/07/01 13:30:40;;;;;;;2.47;0.40;;;;;;;;;;5326797;28;20015;-72
2022/07/01 13:33:12;;;;;;;1.48;0.20;;;;;;;;;;5326382;28;20038;-73
2022/07/01 13:35:43;;;;;;;3.83;0.40;;;;;;;;;;5325748;28;20374;-72
2022/07/01 13:38:14;;;;;;;3.70;0.20;;;;;;;;;;5326275;28;20102;-72
2022/07/01 13:40:45;;;;;;;2.35;0.20;;;;;;;;;;5326395;28;20260;-72
2022/07/01 13:43:19;;;;;;;3.90;0.28;;;;;;;;;;5325535;28;20026;-72
2022/07/01 13:45:50;;;;;;;2.40;0.20;;;;;;;;;;5326832;28;20459;-72
2022/07/01 13:48:21;;;;;;;5.03;0.30;;;;;;;;;;5325337;28;20023;-73
2022/07/01 13:50:52;;;;;;;3.25;0.28;;;;;;;;;;5326581;28;20262;-72
2022/07/01 13:53:23;;;;;;;3.42;0.20;;;;;;;;;;5325867;28;20036;-73
2022/07/01 13:55:55;;;;;;;1.70;0.20;;;;;;;;;;5326037;28;20016;-72
2022/07/01 13:58:26;;;;;;;3.57;0.20;;;;;;;;;;5325854;28;20269;-72
2022/07/01 14:00:57;;;;;;;1.70;0.20;;;;;;;;;;5326294;28;20257;-72
2022/07/01 14:03:28;;;;;;;0.93;0.20;;;;;;;;;;5324811;28;20027;-72
2022/07/01 14:06:00;;;;;;;2.70;0.47;;;;;;;;;;5326008;28;20012;-72
2022/07/01 14:08:31;;;;;;;2.15;0.73;;;;;;;;;;5325981;28;20020;-72
2022/07/01 14:11:02;;;;;;;1.55;0.45;;;;;;;;;;5323978;28;20043;-72
2022/07/01 14:13:37;;;;;;;1.25;0.20;;;;;;;;;;5325778;28;20024;-73
2022/07/01 14:16:08;;;;;;;1.85;0.20;;;;;;;;;;5325228;28;20104;-73
2022/07/01 14:18:39;;;;;;;1.52;0.20;;;;;;;;;;5324935;28;20114;-72
2022/07/01 14:21:10;;;;;;;0.60;0.10;;;;;;;;;;5325627;28;20066;-71
2022/07/01 14:23:41;;;;;;;2.73;0.57;;;;;;;;;;5324828;28;20281;-71
2022/07/01 14:26:13;;;;;;;1.15;0.10;;;;;;;;;;5325373;28;20030;-71
2022/07/01 14:28:44;;;;;;;1.08;0.20;;;;;;;;;;5325631;28;20012;-71
2022/07/01 14:31:15;;;;;;;1.13;0.20;;;;;;;;;;5324627;28;20019;-71
2022/07/01 14:33:47;;;;;;;2.63;0.20;;;;;;;;;;5325325;28;20361;-72
2022/07/01 14:36:18;;;;;;;2.63;0.20;;;;;;;;;;5324905;28;20272;-71
2022/07/01 14:38:49;;;;;;;2.08;0.20;;;;;;;;;;5324668;28;20015;-71
2022/07/01 14:41:21;;;;;;;3.07;0.20;;;;;;;;;;5324818;28;20019;-71
2022/07/01 14:43:52;;;;;;;2.90;0.20;;;;;;;;;;5325375;28;20267;-72
2022/07/01 14:46:23;;;;;;;3.53;0.20;;;;;;;;;;5323881;28;20118;-71
2022/07/01 14:48:54;;;;;;;2.30;0.20;;;;;;;;;;5325203;28;20091;-71
2022/07/01 14:51:26;;;;;;;2.73;0.30;;;;;;;;;;5324451;28;20682;-73
2022/07/01 14:53:57;;;;;;;3.75;0.28;;;;;;;;;;5324363;27;20305;-73
2022/07/01 14:56:28;;;;;;;2.27;0.37;;;;;;;;;;5324720;28;20023;-73
2022/07/01 14:58:59;;;;;;;2.27;0.40;;;;;;;;;;5323956;28;20771;-73
2022/07/01 15:01:31;;;;;;;4.93;0.40;;;;;;;;;;5324654;28;20261;-74
2022/07/01 15:04:02;;;;;;;3.27;0.30;;;;;;;;;;5324583;28;20299;-73
2022/07/01 15:06:33;;;;;;;3.80;0.23;;;;;;;;;;5323853;28;20269;-73
2022/07/01 15:09:04;;;;;;;7.78;0.40;;;;;;;;;;5324447;28;20281;-73
2022/07/01 15:11:35;;;;;;;3.72;0.40;;;;;;;;;;5324522;28;20482;-73
2022/07/01 15:14:06;;;;;;;2.65;0.40;;;;;;;;;;5323594;28;20030;-73